![]() |
EMODnet Physics ERDDAP
Easier access to scientific data |
log in|
Brought to you by EMODnet Physics |
| Dataset Title: | NDBC - Collection of dew point temperature (DEWT) TimeSeries - IN SITU MultiPointTimeSeriesObservation
|
| Institution: | NDBC (Dataset ID: TS_DEWT_NDBC) |
| Information: | Summary
| License
| FGDC
| ISO 19115
| Metadata
| Background
| Subset
| Data Access Form
| Make a graph
|
| Name | Last modified | Size | Description | |
|---|---|---|---|---|
| Parent Directory | - | - | ||
| 42057_TS_DEWT_012007.nc | 26-Oct-2024 16:21 | 425870 | ||
| 42057_TS_DEWT_012009.nc | 26-Oct-2024 16:21 | 429106 | ||
| 42057_TS_DEWT_012011.nc | 26-Oct-2024 16:21 | 429241 | ||
| 42057_TS_DEWT_012012.nc | 26-Oct-2024 16:21 | 428010 | ||
| 42057_TS_DEWT_012013.nc | 26-Oct-2024 16:21 | 429259 | ||
| 42057_TS_DEWT_012014.nc | 26-Oct-2024 16:21 | 429283 | ||
| 42057_TS_DEWT_012015.nc | 26-Oct-2024 16:21 | 449852 | ||
| 42057_TS_DEWT_012016.nc | 26-Oct-2024 16:21 | 449192 | ||
| 42057_TS_DEWT_012018.nc | 26-Oct-2024 16:21 | 437945 | ||
| 42057_TS_DEWT_012019.nc | 26-Oct-2024 16:21 | 450011 | ||
| 42057_TS_DEWT_012020.nc | 26-Oct-2024 16:21 | 448547 | ||
| 42057_TS_DEWT_012026.nc | 02-Feb-2026 17:40 | 449178 | ||
| 42057_TS_DEWT_022007.nc | 26-Oct-2024 16:21 | 449431 | ||
| 42057_TS_DEWT_022009.nc | 26-Oct-2024 16:21 | 448852 | ||
| 42057_TS_DEWT_022012.nc | 26-Oct-2024 16:22 | 449663 | ||
| 42057_TS_DEWT_022013.nc | 26-Oct-2024 16:22 | 450045 | ||
| 42057_TS_DEWT_022014.nc | 26-Oct-2024 16:22 | 448685 | ||
| 42057_TS_DEWT_022015.nc | 26-Oct-2024 16:22 | 450308 | ||
| 42057_TS_DEWT_022016.nc | 26-Oct-2024 16:22 | 449884 | ||
| 42057_TS_DEWT_022018.nc | 26-Oct-2024 16:22 | 449278 | ||
| 42057_TS_DEWT_022019.nc | 26-Oct-2024 16:22 | 444380 | ||
| 42057_TS_DEWT_022020.nc | 26-Oct-2024 16:22 | 429492 | ||
| 42057_TS_DEWT_022026.nc | 01-Mar-2026 06:51 | 419457 | ||
| 42057_TS_DEWT_032007.nc | 26-Oct-2024 16:22 | 428213 | ||
| 42057_TS_DEWT_032009.nc | 26-Oct-2024 16:22 | 429449 | ||
| 42057_TS_DEWT_032012.nc | 26-Oct-2024 16:22 | 450335 | ||
| 42057_TS_DEWT_032013.nc | 26-Oct-2024 16:22 | 429496 | ||
| 42057_TS_DEWT_032014.nc | 26-Oct-2024 16:22 | 449242 | ||
| 42057_TS_DEWT_032015.nc | 26-Oct-2024 16:22 | 429492 | ||
| 42057_TS_DEWT_032016.nc | 26-Oct-2024 16:22 | 429496 | ||
| 42057_TS_DEWT_032017.nc | 26-Oct-2024 16:22 | 1110884 | ||
| 42057_TS_DEWT_032018.nc | 26-Oct-2024 16:22 | 1112115 | ||
| 42057_TS_DEWT_032019.nc | 26-Oct-2024 16:22 | 995750 | ||
| 42057_TS_DEWT_032020.nc | 26-Oct-2024 16:22 | 995569 | ||
| 42057_TS_DEWT_032025.nc | 02-Apr-2025 05:24 | 4930420 | ||
| 42057_TS_DEWT_032026.nc | 21-Mar-2026 09:35 | 434069 | ||
| 42057_TS_DEWT_042007.nc | 26-Oct-2024 16:23 | 425980 | ||
| 42057_TS_DEWT_042008.nc | 26-Oct-2024 16:23 | 426203 | ||
| 42057_TS_DEWT_042009.nc | 26-Oct-2024 16:23 | 429606 | ||
| 42057_TS_DEWT_042012.nc | 26-Oct-2024 16:23 | 429599 | ||
| 42057_TS_DEWT_042013.nc | 26-Oct-2024 16:23 | 429591 | ||
| 42057_TS_DEWT_042014.nc | 26-Oct-2024 16:23 | 429602 | ||
| 42057_TS_DEWT_042015.nc | 26-Oct-2024 16:23 | 429603 | ||
| 42057_TS_DEWT_042016.nc | 26-Oct-2024 16:23 | 426886 | ||
| 42057_TS_DEWT_042017.nc | 26-Oct-2024 16:23 | 429425 | ||
| 42057_TS_DEWT_042018.nc | 26-Oct-2024 16:23 | 429610 | ||
| 42057_TS_DEWT_042019.nc | 26-Oct-2024 16:23 | 429617 | ||
| 42057_TS_DEWT_042020.nc | 26-Oct-2024 16:23 | 425216 | ||
| 42057_TS_DEWT_042023.nc | 26-Oct-2024 16:23 | 429621 | ||
| 42057_TS_DEWT_042025.nc | 01-May-2025 04:05 | 429619 | ||
| 42057_TS_DEWT_052007.nc | 26-Oct-2024 16:23 | 429610 | ||
| 42057_TS_DEWT_052008.nc | 26-Oct-2024 16:23 | 429615 | ||
| 42057_TS_DEWT_052009.nc | 26-Oct-2024 16:23 | 429625 | ||
| 42057_TS_DEWT_052010.nc | 26-Oct-2024 16:23 | 450125 | ||
| 42057_TS_DEWT_052011.nc | 26-Oct-2024 16:24 | 450362 | ||
| 42057_TS_DEWT_052012.nc | 26-Oct-2024 16:24 | 439395 | ||
| 42057_TS_DEWT_052013.nc | 26-Oct-2024 16:24 | 449270 | ||
| 42057_TS_DEWT_052014.nc | 26-Oct-2024 16:24 | 450430 | ||
| 42057_TS_DEWT_052015.nc | 26-Oct-2024 16:24 | 449960 | ||
| 42057_TS_DEWT_052016.nc | 26-Oct-2024 16:24 | 434570 | ||
| 42057_TS_DEWT_052017.nc | 26-Oct-2024 16:24 | 449834 | ||
| 42057_TS_DEWT_052018.nc | 26-Oct-2024 16:24 | 449050 | ||
| 42057_TS_DEWT_052019.nc | 26-Oct-2024 16:24 | 450879 | ||
| 42057_TS_DEWT_052020.nc | 26-Oct-2024 16:24 | 451115 | ||
| 42057_TS_DEWT_052023.nc | 26-Oct-2024 16:24 | 450511 | ||
| 42057_TS_DEWT_052025.nc | 01-Jun-2025 04:13 | 450339 | ||
| 42057_TS_DEWT_062005.nc | 26-Oct-2024 16:24 | 450819 | ||
| 42057_TS_DEWT_062006.nc | 26-Oct-2024 16:24 | 429831 | ||
| 42057_TS_DEWT_062007.nc | 26-Oct-2024 16:24 | 429683 | ||
| 42057_TS_DEWT_062008.nc | 26-Oct-2024 16:24 | 427864 | ||
| 42057_TS_DEWT_062009.nc | 26-Oct-2024 16:24 | 429813 | ||
| 42057_TS_DEWT_062010.nc | 26-Oct-2024 16:24 | 419669 | ||
| 42057_TS_DEWT_062011.nc | 26-Oct-2024 16:24 | 451121 | ||
| 42057_TS_DEWT_062012.nc | 26-Oct-2024 16:25 | 429833 | ||
| 42057_TS_DEWT_062013.nc | 26-Oct-2024 16:25 | 449199 | ||
| 42057_TS_DEWT_062014.nc | 26-Oct-2024 16:25 | 429839 | ||
| 42057_TS_DEWT_062015.nc | 26-Oct-2024 16:25 | 429832 | ||
| 42057_TS_DEWT_062016.nc | 26-Oct-2024 16:25 | 1262888 | ||
| 42057_TS_DEWT_062017.nc | 26-Oct-2024 16:25 | 1262655 | ||
| 42057_TS_DEWT_062018.nc | 26-Oct-2024 16:25 | 1144187 | ||
| 42057_TS_DEWT_062019.nc | 26-Oct-2024 16:25 | 1144154 | ||
| 42057_TS_DEWT_062020.nc | 26-Oct-2024 16:25 | 5476414 | ||
| 42057_TS_DEWT_062023.nc | 26-Oct-2024 16:25 | 423308 | ||
| 42057_TS_DEWT_062025.nc | 01-Jul-2025 04:16 | 426940 | ||
| 42057_TS_DEWT_072006.nc | 26-Oct-2024 16:25 | 425887 | ||
| 42057_TS_DEWT_072007.nc | 26-Oct-2024 16:25 | 425944 | ||
| 42057_TS_DEWT_072008.nc | 26-Oct-2024 16:25 | 429262 | ||
| 42057_TS_DEWT_072009.nc | 26-Oct-2024 16:25 | 429273 | ||
| 42057_TS_DEWT_072010.nc | 26-Oct-2024 16:25 | 429255 | ||
| 42057_TS_DEWT_072011.nc | 26-Oct-2024 16:25 | 429269 | ||
| 42057_TS_DEWT_072012.nc | 26-Oct-2024 16:25 | 429271 | ||
| 42057_TS_DEWT_072013.nc | 26-Oct-2024 16:25 | 425860 | ||
| 42057_TS_DEWT_072014.nc | 26-Oct-2024 16:25 | 428721 | ||
| 42057_TS_DEWT_072015.nc | 26-Oct-2024 16:25 | 429276 | ||
| 42057_TS_DEWT_072017.nc | 26-Oct-2024 16:26 | 429288 | ||
| 42057_TS_DEWT_072018.nc | 26-Oct-2024 16:26 | 424588 | ||
| 42057_TS_DEWT_072019.nc | 26-Oct-2024 16:26 | 429280 | ||
| 42057_TS_DEWT_072020.nc | 26-Oct-2024 16:26 | 429290 | ||
| 42057_TS_DEWT_072023.nc | 26-Oct-2024 16:26 | 429091 | ||
| 42057_TS_DEWT_072025.nc | 01-Aug-2025 04:24 | 429283 | ||
| 42057_TS_DEWT_082006.nc | 26-Oct-2024 16:26 | 446357 | ||
| 42057_TS_DEWT_082008.nc | 26-Oct-2024 16:26 | 449392 | ||
| 42057_TS_DEWT_082009.nc | 26-Oct-2024 16:26 | 449553 | ||
| 42057_TS_DEWT_082010.nc | 26-Oct-2024 16:26 | 449190 | ||
| 42057_TS_DEWT_082011.nc | 26-Oct-2024 16:26 | 449536 | ||
| 42057_TS_DEWT_082012.nc | 26-Oct-2024 16:26 | 448715 | ||
| 42057_TS_DEWT_082013.nc | 26-Oct-2024 16:26 | 448588 | ||
| 42057_TS_DEWT_082014.nc | 26-Oct-2024 16:26 | 442800 | ||
| 42057_TS_DEWT_082015.nc | 26-Oct-2024 16:26 | 449444 | ||
| 42057_TS_DEWT_082017.nc | 26-Oct-2024 16:26 | 449440 | ||
| 42057_TS_DEWT_082019.nc | 26-Oct-2024 16:26 | 448802 | ||
| 42057_TS_DEWT_082020.nc | 26-Oct-2024 16:26 | 449056 | ||
| 42057_TS_DEWT_082023.nc | 26-Oct-2024 16:26 | 449816 | ||
| 42057_TS_DEWT_082025.nc | 01-Sep-2025 04:29 | 449277 | ||
| 42057_TS_DEWT_092006.nc | 26-Oct-2024 16:26 | 448837 | ||
| 42057_TS_DEWT_092008.nc | 26-Oct-2024 16:26 | 429494 | ||
| 42057_TS_DEWT_092009.nc | 26-Oct-2024 16:27 | 424601 | ||
| 42057_TS_DEWT_092010.nc | 26-Oct-2024 16:27 | 420806 | ||
| 42057_TS_DEWT_092011.nc | 26-Oct-2024 16:27 | 428565 | ||
| 42057_TS_DEWT_092012.nc | 26-Oct-2024 16:27 | 429493 | ||
| 42057_TS_DEWT_092013.nc | 26-Oct-2024 16:27 | 450109 | ||
| 42057_TS_DEWT_092014.nc | 26-Oct-2024 16:27 | 439692 | ||
| 42057_TS_DEWT_092015.nc | 26-Oct-2024 16:27 | 450046 | ||
| 42057_TS_DEWT_092017.nc | 26-Oct-2024 16:27 | 437336 | ||
| 42057_TS_DEWT_092018.nc | 26-Oct-2024 16:27 | 429094 | ||
| 42057_TS_DEWT_092019.nc | 26-Oct-2024 16:27 | 1113333 | ||
| 42057_TS_DEWT_092020.nc | 26-Oct-2024 16:27 | 1114007 | ||
| 42057_TS_DEWT_092023.nc | 26-Oct-2024 16:27 | 995682 | ||
| 42057_TS_DEWT_092025.nc | 01-Oct-2025 04:04 | 995732 | ||
| 42057_TS_DEWT_102005.nc | 26-Oct-2024 16:27 | 5175181 | ||
| 42057_TS_DEWT_102006.nc | 26-Oct-2024 16:27 | 433238 | ||
| 42057_TS_DEWT_102008.nc | 26-Oct-2024 16:27 | 433405 | ||
| 42057_TS_DEWT_102009.nc | 26-Oct-2024 16:27 | 425648 | ||
| 42057_TS_DEWT_102011.nc | 26-Oct-2024 16:27 | 424335 | ||
| 42057_TS_DEWT_102012.nc | 26-Oct-2024 16:27 | 429609 | ||
| 42057_TS_DEWT_102013.nc | 26-Oct-2024 16:27 | 429609 | ||
| 42057_TS_DEWT_102014.nc | 26-Oct-2024 16:27 | 429607 | ||
| 42057_TS_DEWT_102015.nc | 26-Oct-2024 16:28 | 429606 | ||
| 42057_TS_DEWT_102017.nc | 26-Oct-2024 16:28 | 429599 | ||
| 42057_TS_DEWT_102018.nc | 26-Oct-2024 16:28 | 426113 | ||
| 42057_TS_DEWT_102019.nc | 26-Oct-2024 16:28 | 422751 | ||
| 42057_TS_DEWT_102020.nc | 26-Oct-2024 16:28 | 429598 | ||
| 42057_TS_DEWT_102023.nc | 26-Oct-2024 16:28 | 429610 | ||
| 42057_TS_DEWT_102025.nc | 01-Nov-2025 06:08 | 429616 | ||
| 42057_TS_DEWT_112005.nc | 26-Oct-2024 16:28 | 429617 | ||
| 42057_TS_DEWT_112006.nc | 26-Oct-2024 16:28 | 429611 | ||
| 42057_TS_DEWT_112008.nc | 26-Oct-2024 16:28 | 429438 | ||
| 42057_TS_DEWT_112009.nc | 26-Oct-2024 16:28 | 429619 | ||
| 42057_TS_DEWT_112011.nc | 26-Oct-2024 16:28 | 449460 | ||
| 42057_TS_DEWT_112012.nc | 26-Oct-2024 16:28 | 449720 | ||
| 42057_TS_DEWT_112013.nc | 26-Oct-2024 16:28 | 450971 | ||
| 42057_TS_DEWT_112014.nc | 26-Oct-2024 16:28 | 450975 | ||
| 42057_TS_DEWT_112015.nc | 26-Oct-2024 16:28 | 449935 | ||
| 42057_TS_DEWT_112017.nc | 26-Oct-2024 16:28 | 449773 | ||
| 42057_TS_DEWT_112018.nc | 26-Oct-2024 16:28 | 448703 | ||
| 42057_TS_DEWT_112019.nc | 26-Oct-2024 16:28 | 450694 | ||
| 42057_TS_DEWT_112020.nc | 26-Oct-2024 16:28 | 450191 | ||
| 42057_TS_DEWT_112023.nc | 26-Oct-2024 16:29 | 449981 | ||
| 42057_TS_DEWT_112025.nc | 01-Dec-2025 06:51 | 450563 | ||
| 42057_TS_DEWT_122006.nc | 26-Oct-2024 16:29 | 450084 | ||
| 42057_TS_DEWT_122008.nc | 26-Oct-2024 16:29 | 451414 | ||
| 42057_TS_DEWT_122009.nc | 26-Oct-2024 16:29 | 450616 | ||
| 42057_TS_DEWT_122010.nc | 26-Oct-2024 16:29 | 450562 | ||
| 42057_TS_DEWT_122011.nc | 26-Oct-2024 16:29 | 429835 | ||
| 42057_TS_DEWT_122012.nc | 26-Oct-2024 16:29 | 421568 | ||
| 42057_TS_DEWT_122013.nc | 26-Oct-2024 16:29 | 428762 | ||
| 42057_TS_DEWT_122014.nc | 26-Oct-2024 16:29 | 429771 | ||
| 42057_TS_DEWT_122015.nc | 26-Oct-2024 16:29 | 432730 | ||
| 42057_TS_DEWT_122017.nc | 26-Oct-2024 16:29 | 450024 | ||
| 42057_TS_DEWT_122018.nc | 26-Oct-2024 16:29 | 450207 | ||
| 42057_TS_DEWT_122019.nc | 26-Oct-2024 16:29 | 450757 | ||
| 42057_TS_DEWT_122020.nc | 26-Oct-2024 16:29 | 449976 | ||
| 42057_TS_DEWT_122023.nc | 24-Dec-2024 08:09 | 429833 | ||
| 42057_TS_DEWT_122025.nc | 01-Jan-2026 06:46 | 1109582 | ||